Private Wetterstation Sandau
Wetterdaten: Freitag, 08.06.2012
Datum Zeit Temp. A. Feuchte A. Luftdruck Regen Wind Richtung Richtung Taupunkt Windchill
08.06.2012 00:01 15,4 C 86 % 1004,2 hPa 0,0 l/m 4,0 km/h (1 Bft) O 90 13,1 C 15,4 C
08.06.2012 00:06 15,4 C 86 % 1004,1 hPa 0,0 l/m 7,2 km/h (2 Bft) O 90 13,1 C 15,4 C
08.06.2012 00:11 15,4 C 86 % 1004,0 hPa 0,0 l/m 4,3 km/h (1 Bft) O-NO 67 13,1 C 15,4 C
08.06.2012 00:16 15,4 C 86 % 1004,1 hPa 0,0 l/m 2,9 km/h (1 Bft) O-SO 112 13,1 C 15,4 C
08.06.2012 00:21 15,4 C 86 % 1004,1 hPa 0,0 l/m 2,5 km/h (1 Bft) O-SO 112 13,1 C 15,4 C
08.06.2012 00:26 15,5 C 86 % 1004,0 hPa 0,0 l/m 4,3 km/h (1 Bft) O-SO 112 13,2 C 15,5 C
08.06.2012 00:31 15,5 C 86 % 1003,9 hPa 0,0 l/m 4,3 km/h (1 Bft) O 90 13,2 C 15,5 C
08.06.2012 00:36 15,5 C 87 % 1003,9 hPa 0,0 l/m 1,8 km/h (1 Bft) O-SO 112 13,3 C 15,5 C
08.06.2012 00:41 15,5 C 87 % 1004,0 hPa 0,0 l/m 3,2 km/h (1 Bft) O-SO 112 13,3 C 15,5 C
08.06.2012 00:46 15,5 C 87 % 1004,0 hPa 0,0 l/m 4,7 km/h (1 Bft) O-SO 112 13,3 C 15,5 C
08.06.2012 00:51 15,5 C 87 % 1004,0 hPa 0,0 l/m 0,0 km/h (0 Bft) SO 135 13,3 C 15,5 C
08.06.2012 00:56 15,5 C 87 % 1004,1 hPa 0,0 l/m 0,0 km/h (0 Bft) O-SO 112 13,3 C 15,5 C
08.06.2012 01:01 15,5 C 87 % 1004,3 hPa 0,0 l/m 0,0 km/h (0 Bft) O-SO 112 13,3 C 15,5 C
08.06.2012 01:06 15,5 C 87 % 1004,2 hPa 0,5 l/m 3,2 km/h (1 Bft) O 90 13,3 C 15,5 C
08.06.2012 01:11 15,4 C 87 % 1004,0 hPa 0,0 l/m 3,2 km/h (1 Bft) O-SO 112 13,2 C 15,4 C
08.06.2012 01:16 15,4 C 87 % 1004,0 hPa 0,0 l/m 6,1 km/h (2 Bft) O 90 13,2 C 15,4 C
08.06.2012 01:21 15,4 C 87 % 1004,0 hPa 0,0 l/m 6,5 km/h (2 Bft) O-SO 112 13,2 C 15,4 C
08.06.2012 01:26 15,4 C 88 % 1004,0 hPa 0,0 l/m 5,8 km/h (2 Bft) O-SO 112 13,4 C 15,4 C
08.06.2012 01:31 15,4 C 88 % 1004,0 hPa 0,0 l/m 6,1 km/h (2 Bft) O 90 13,4 C 15,4 C
08.06.2012 01:36 15,4 C 88 % 1003,9 hPa 0,0 l/m 4,0 km/h (1 Bft) O 90 13,4 C 15,4 C
08.06.2012 01:41 15,5 C 88 % 1003,9 hPa 0,0 l/m 5,8 km/h (2 Bft) O-SO 112 13,5 C 15,5 C
08.06.2012 01:46 15,5 C 88 % 1003,9 hPa 0,0 l/m 2,5 km/h (1 Bft) O-SO 112 13,5 C 15,5 C
08.06.2012 01:51 15,5 C 88 % 1003,7 hPa 0,0 l/m 2,5 km/h (1 Bft) O 90 13,5 C 15,5 C
08.06.2012 01:56 15,5 C 88 % 1003,7 hPa 0,5 l/m 5,8 km/h (2 Bft) O-NO 67 13,5 C 15,5 C
08.06.2012 02:01 15,5 C 89 % 1003,6 hPa 0,0 l/m 4,0 km/h (1 Bft) O-SO 112 13,7 C 15,5 C
08.06.2012 02:06 15,5 C 89 % 1003,5 hPa 0,0 l/m 9,4 km/h (2 Bft) O 90 13,7 C 15,5 C
08.06.2012 02:11 15,4 C 89 % 1003,5 hPa 0,0 l/m 1,8 km/h (1 Bft) SO 135 13,6 C 15,4 C
08.06.2012 02:16 15,5 C 89 % 1003,6 hPa 0,0 l/m 0,0 km/h (0 Bft) O-SO 112 13,7 C 15,5 C
08.06.2012 02:21 15,5 C 89 % 1003,5 hPa 0,0 l/m 6,1 km/h (2 Bft) O-SO 112 13,7 C 15,5 C
08.06.2012 02:26 15,5 C 89 % 1003,4 hPa 0,0 l/m 5,4 km/h (1 Bft) O 90 13,7 C 15,5 C
08.06.2012 02:31 15,5 C 89 % 1003,2 hPa 0,0 l/m 6,5 km/h (2 Bft) O-SO 112 13,7 C 15,5 C
08.06.2012 02:36 15,5 C 89 % 1003,1 hPa 0,0 l/m 10,4 km/h (2 Bft) O 90 13,7 C 15,5 C
08.06.2012 02:41 15,5 C 89 % 1003,0 hPa 0,0 l/m 6,1 km/h (2 Bft) O-SO 112 13,7 C 15,5 C
08.06.2012 02:46 15,4 C 89 % 1003,0 hPa 0,0 l/m 6,5 km/h (2 Bft) O 90 13,6 C 15,4 C
08.06.2012 02:51 15,4 C 89 % 1003,2 hPa 0,0 l/m 10,1 km/h (2 Bft) SO 135 13,6 C 15,4 C
08.06.2012 02:56 15,4 C 89 % 1003,1 hPa 0,0 l/m 3,6 km/h (1 Bft) O 90 13,6 C 15,4 C
08.06.2012 03:01 15,4 C 89 % 1003,0 hPa 0,0 l/m 5,8 km/h (2 Bft) O-NO 67 13,6 C 15,4 C
08.06.2012 03:06 15,4 C 89 % 1002,9 hPa 0,0 l/m 3,6 km/h (1 Bft) SO 135 13,6 C 15,4 C
08.06.2012 03:11 15,4 C 88 % 1003,0 hPa 0,0 l/m 4,7 km/h (1 Bft) SO 135 13,4 C 15,4 C
08.06.2012 03:16 15,4 C 88 % 1003,0 hPa 0,0 l/m 6,1 km/h (2 Bft) SO 135 13,4 C 15,4 C
08.06.2012 03:21 15,4 C 88 % 1003,0 hPa 0,0 l/m 4,3 km/h (1 Bft) SO 135 13,4 C 15,4 C
08.06.2012 03:26 15,4 C 88 % 1003,2 hPa 0,0 l/m 3,2 km/h (1 Bft) O-SO 112 13,4 C 15,4 C
08.06.2012 03:31 15,3 C 88 % 1003,2 hPa 0,0 l/m 2,2 km/h (1 Bft) S-SO 157 13,3 C 15,3 C
08.06.2012 03:36 15,4 C 88 % 1003,2 hPa 0,0 l/m 0,0 km/h (0 Bft) O-SO 112 13,4 C 15,4 C
08.06.2012 03:41 15,3 C 88 % 1002,9 hPa 0,0 l/m 2,9 km/h (1 Bft) O 90 13,3 C 15,3 C
08.06.2012 03:46 15,3 C 88 % 1003,1 hPa 0,0 l/m 1,8 km/h (1 Bft) O 90 13,3 C 15,3 C
08.06.2012 03:51 15,3 C 88 % 1003,1 hPa 0,0 l/m 3,2 km/h (1 Bft) SO 135 13,3 C 15,3 C
08.06.2012 03:56 15,3 C 88 % 1003,0 hPa 0,0 l/m 2,9 km/h (1 Bft) O-SO 112 13,3 C 15,3 C
08.06.2012 04:01 15,3 C 88 % 1003,2 hPa 0,0 l/m 2,5 km/h (1 Bft) O-SO 112 13,3 C 15,3 C
08.06.2012 04:06 15,3 C 88 % 1003,1 hPa 0,0 l/m 3,2 km/h (1 Bft) O-SO 112 13,3 C 15,3 C
08.06.2012 04:11 15,2 C 88 % 1003,1 hPa 0,0 l/m 3,6 km/h (1 Bft) O 90 13,2 C 15,2 C
08.06.2012 04:16 15,2 C 88 % 1003,1 hPa 0,0 l/m 2,2 km/h (1 Bft) O 90 13,2 C 15,2 C
08.06.2012 04:21 15,0 C 88 % 1003,2 hPa 0,0 l/m 4,7 km/h (1 Bft) O-SO 112 13,0 C 15,0 C
08.06.2012 04:26 14,9 C 88 % 1003,1 hPa 0,0 l/m 2,5 km/h (1 Bft) SO 135 12,9 C 14,9 C
08.06.2012 04:31 14,9 C 88 % 1003,2 hPa 0,0 l/m 1,8 km/h (1 Bft) SO 135 12,9 C 14,9 C
08.06.2012 04:36 14,9 C 88 % 1003,1 hPa 0,0 l/m 1,4 km/h (1 Bft) O-SO 112 12,9 C 14,9 C
08.06.2012 04:41 14,9 C 88 % 1003,2 hPa 0,0 l/m 0,0 km/h (0 Bft) SO 135 12,9 C 14,9 C
08.06.2012 04:46 14,9 C 88 % 1003,2 hPa 0,0 l/m 2,5 km/h (1 Bft) SO 135 12,9 C 14,9 C
08.06.2012 04:51 14,9 C 88 % 1003,2 hPa 0,0 l/m 3,2 km/h (1 Bft) SO 135 12,9 C 14,9 C
08.06.2012 04:56 14,8 C 88 % 1003,2 hPa 0,0 l/m 1,4 km/h (1 Bft) SO 135 12,8 C 14,8 C
08.06.2012 05:01 14,8 C 88 % 1003,3 hPa 0,0 l/m 2,2 km/h (1 Bft) SO 135 12,8 C 14,8 C
08.06.2012 05:06 14,7 C 88 % 1003,3 hPa 0,0 l/m 3,2 km/h (1 Bft) SO 135 12,7 C 14,7 C
08.06.2012 05:11 14,7 C 89 % 1003,3 hPa 0,0 l/m 3,6 km/h (1 Bft) SO 135 12,9 C 14,7 C
08.06.2012 05:16 14,7 C 89 % 1003,5 hPa 0,0 l/m 2,9 km/h (1 Bft) S-SO 157 12,9 C 14,7 C
08.06.2012 05:21 14,7 C 89 % 1003,4 hPa 0,0 l/m 2,5 km/h (1 Bft) SO 135 12,9 C 14,7 C
08.06.2012 05:26 14,6 C 89 % 1003,4 hPa 0,0 l/m 2,2 km/h (1 Bft) S-SO 157 12,8 C 14,6 C
08.06.2012 05:31 14,6 C 89 % 1003,4 hPa 0,0 l/m 1,1 km/h (1 Bft) SO 135 12,8 C 14,6 C
08.06.2012 05:36 14,7 C 89 % 1003,4 hPa 0,0 l/m 2,2 km/h (1 Bft) SO 135 12,9 C 14,7 C
08.06.2012 05:41 14,7 C 89 % 1003,3 hPa 0,0 l/m 0,0 km/h (0 Bft) SO 135 12,9 C 14,7 C
08.06.2012 05:46 14,9 C 90 % 1003,4 hPa 0,0 l/m 2,5 km/h (1 Bft) SO 135 13,3 C 14,9 C
08.06.2012 05:51 15,1 C 90 % 1003,5 hPa 0,0 l/m 0,0 km/h (0 Bft) S 180 13,5 C 15,1 C
08.06.2012 05:56 15,3 C 90 % 1003,4 hPa 0,0 l/m 5,8 km/h (2 Bft) S-SO 157 13,7 C 15,3 C
08.06.2012 06:01 15,4 C 89 % 1003,4 hPa 0,0 l/m 1,4 km/h (1 Bft) SO 135 13,6 C 15,4 C
08.06.2012 06:06 15,7 C 89 % 1003,3 hPa 0,0 l/m 3,2 km/h (1 Bft) S 180 13,9 C 15,7 C
08.06.2012 06:11 15,9 C 88 % 1003,1 hPa 0,0 l/m 2,9 km/h (1 Bft) S-SW 202 13,9 C 15,9 C
08.06.2012 06:16 16,1 C 87 % 1003,2 hPa 0,0 l/m 4,7 km/h (1 Bft) S-SW 202 13,9 C 16,1 C
08.06.2012 06:21 16,3 C 87 % 1003,3 hPa 0,0 l/m 4,3 km/h (1 Bft) S 180 14,1 C 16,3 C
08.06.2012 06:26 16,6 C 87 % 1003,4 hPa 0,0 l/m 2,2 km/h (1 Bft) S 180 14,4 C 16,6 C
08.06.2012 06:31 16,9 C 85 % 1003,4 hPa 0,0 l/m 3,6 km/h (1 Bft) S-SW 202 14,4 C 16,9 C
08.06.2012 06:36 17,1 C 85 % 1003,6 hPa 0,0 l/m 2,5 km/h (1 Bft) S-SW 202 14,6 C 17,1 C
08.06.2012 06:41 17,3 C 84 % 1003,6 hPa 0,0 l/m 7,9 km/h (2 Bft) W 270 14,6 C 17,3 C
08.06.2012 06:46 17,4 C 83 % 1003,7 hPa 0,0 l/m 4,7 km/h (1 Bft) S-SW 202 14,5 C 17,4 C
08.06.2012 06:51 17,4 C 83 % 1003,7 hPa 0,0 l/m 9,4 km/h (2 Bft) W-SW 247 14,5 C 17,4 C
08.06.2012 06:56 17,4 C 82 % 1003,7 hPa 0,0 l/m 13,7 km/h (3 Bft) SW 225 14,3 C 17,4 C
08.06.2012 07:01 17,3 C 82 % 1003,9 hPa 0,0 l/m 7,2 km/h (2 Bft) S-SW 202 14,2 C 17,3 C
08.06.2012 07:06 17,3 C 82 % 1003,8 hPa 0,0 l/m 13,3 km/h (3 Bft) SW 225 14,2 C 17,3 C
08.06.2012 07:11 17,3 C 82 % 1004,0 hPa 0,0 l/m 11,5 km/h (2 Bft) W-SW 247 14,2 C 17,3 C
08.06.2012 07:16 17,4 C 82 % 1004,0 hPa 0,0 l/m 15,8 km/h (3 Bft) SW 225 14,3 C 17,4 C
08.06.2012 07:21 17,6 C 82 % 1004,1 hPa 0,0 l/m 10,4 km/h (2 Bft) W-SW 247 14,5 C 17,6 C
08.06.2012 07:26 17,9 C 81 % 1004,0 hPa 0,0 l/m 5,0 km/h (1 Bft) W 270 14,6 C 17,9 C
08.06.2012 07:31 18,1 C 81 % 1004,1 hPa 0,0 l/m 9,7 km/h (2 Bft) W-SW 247 14,8 C 18,1 C
08.06.2012 07:36 18,3 C 80 % 1004,0 hPa 0,0 l/m 14,0 km/h (3 Bft) W 270 14,8 C 18,3 C
08.06.2012 07:41 18,5 C 79 % 1004,0 hPa 0,0 l/m 10,8 km/h (2 Bft) SW 225 14,8 C 18,5 C
08.06.2012 07:46 18,6 C 79 % 1004,1 hPa 0,0 l/m 14,4 km/h (3 Bft) W-SW 247 14,9 C 18,6 C
08.06.2012 07:51 18,7 C 78 % 1004,1 hPa 0,0 l/m 9,4 km/h (2 Bft) W-NW 292 14,8 C 18,7 C
08.06.2012 07:56 18,9 C 78 % 1004,1 hPa 0,0 l/m 15,5 km/h (3 Bft) SW 225 15,0 C 18,9 C
08.06.2012 08:01 18,9 C 77 % 1004,2 hPa 0,0 l/m 9,7 km/h (2 Bft) W 270 14,8 C 18,9 C
08.06.2012 08:06 18,9 C 77 % 1004,2 hPa 0,0 l/m 11,9 km/h (2 Bft) W-SW 247 14,8 C 18,9 C
08.06.2012 08:11 19,1 C 77 % 1004,2 hPa 0,0 l/m 8,6 km/h (2 Bft) W-NW 292 15,0 C 19,1 C
08.06.2012 08:16 19,2 C 77 % 1004,2 hPa 0,0 l/m 16,9 km/h (3 Bft) W 270 15,1 C 19,2 C
08.06.2012 08:21 19,3 C 76 % 1004,3 hPa 0,0 l/m 16,2 km/h (3 Bft) W-SW 247 15,0 C 19,3 C
08.06.2012 08:26 19,5 C 77 % 1004,5 hPa 0,0 l/m 14,8 km/h (3 Bft) W-SW 247 15,4 C 19,5 C
08.06.2012 08:31 19,7 C 76 % 1004,4 hPa 0,0 l/m 3,2 km/h (1 Bft) W 270 15,3 C 19,7 C
08.06.2012 08:36 19,8 C 76 % 1004,6 hPa 0,0 l/m 14,8 km/h (3 Bft) W-NW 292 15,4 C 19,8 C
08.06.2012 08:41 19,8 C 75 % 1004,7 hPa 0,0 l/m 14,0 km/h (3 Bft) W-SW 247 15,2 C 19,8 C
08.06.2012 08:46 19,9 C 75 % 1004,9 hPa 0,0 l/m 24,5 km/h (4 Bft) W-SW 247 15,3 C 19,9 C
08.06.2012 08:51 20,1 C 74 % 1004,9 hPa 0,0 l/m 20,9 km/h (4 Bft) W-SW 247 15,3 C 20,1 C
08.06.2012 08:56 20,1 C 74 % 1005,1 hPa 0,0 l/m 14,4 km/h (3 Bft) W 270 15,3 C 20,1 C
08.06.2012 09:01 20,2 C 74 % 1005,0 hPa 0,0 l/m 11,2 km/h (2 Bft) W-SW 247 15,4 C 20,2 C
08.06.2012 09:06 20,4 C 74 % 1004,9 hPa 0,0 l/m 19,1 km/h (3 Bft) W 270 15,6 C 20,4 C
08.06.2012 09:11 20,4 C 73 % 1005,0 hPa 0,0 l/m 26,6 km/h (4 Bft) W-SW 247 15,4 C 20,4 C
08.06.2012 09:16 20,5 C 71 % 1005,0 hPa 0,0 l/m 21,2 km/h (4 Bft) W-SW 247 15,1 C 20,5 C
08.06.2012 09:21 20,5 C 70 % 1005,0 hPa 0,0 l/m 18,0 km/h (3 Bft) W-SW 247 14,8 C 20,5 C
08.06.2012 09:26 20,6 C 70 % 1005,0 hPa 0,0 l/m 7,6 km/h (2 Bft) W-SW 247 14,9 C 20,6 C
08.06.2012 09:31 20,7 C 69 % 1005,1 hPa 0,0 l/m 21,2 km/h (4 Bft) W 270 14,8 C 20,7 C
08.06.2012 09:36 20,8 C 69 % 1005,2 hPa 0,0 l/m 14,8 km/h (3 Bft) SW 225 14,9 C 20,8 C
08.06.2012 09:41 20,9 C 67 % 1005,3 hPa 0,0 l/m 16,6 km/h (3 Bft) W 270 14,5 C 20,9 C
08.06.2012 09:46 21,1 C 68 % 1005,4 hPa 0,0 l/m 8,6 km/h (2 Bft) W-SW 247 15,0 C 21,1 C
08.06.2012 09:51 21,3 C 66 % 1005,4 hPa 0,0 l/m 9,4 km/h (2 Bft) W 270 14,7 C 21,3 C
08.06.2012 09:56 21,3 C 65 % 1005,4 hPa 0,0 l/m 18,4 km/h (3 Bft) W-SW 247 14,4 C 21,3 C
08.06.2012 10:01 21,4 C 65 % 1005,6 hPa 0,0 l/m 4,0 km/h (1 Bft) W-SW 247 14,5 C 21,4 C
08.06.2012 10:06 21,4 C 65 % 1005,6 hPa 0,0 l/m 7,6 km/h (2 Bft) W-NW 292 14,5 C 21,4 C
08.06.2012 10:11 21,4 C 64 % 1005,5 hPa 0,0 l/m 11,9 km/h (2 Bft) SW 225 14,3 C 21,4 C
08.06.2012 10:16 21,6 C 64 % 1005,7 hPa 0,0 l/m 4,3 km/h (1 Bft) W-SW 247 14,5 C 21,6 C
08.06.2012 10:21 21,8 C 64 % 1005,7 hPa 0,0 l/m 10,1 km/h (2 Bft) W-SW 247 14,7 C 21,8 C
08.06.2012 10:26 21,9 C 62 % 1005,6 hPa 0,0 l/m 7,6 km/h (2 Bft) W 270 14,3 C 21,9 C
08.06.2012 10:31 21,9 C 62 % 1005,7 hPa 0,0 l/m 22,7 km/h (4 Bft) SW 225 14,3 C 21,9 C
08.06.2012 10:36 21,9 C 61 % 1005,9 hPa 0,0 l/m 11,9 km/h (2 Bft) W-SW 247 14,0 C 21,9 C
08.06.2012 10:41 21,9 C 61 % 1005,7 hPa 0,0 l/m 14,0 km/h (3 Bft) W 270 14,0 C 21,9 C
08.06.2012 10:46 21,9 C 60 % 1005,7 hPa 0,0 l/m 15,5 km/h (3 Bft) W-SW 247 13,8 C 21,9 C
08.06.2012 10:51 21,9 C 60 % 1005,8 hPa 0,0 l/m 5,8 km/h (2 Bft) SW 225 13,8 C 21,9 C
08.06.2012 10:56 21,9 C 57 % 1005,9 hPa 0,0 l/m 13,0 km/h (3 Bft) W-SW 247 13,0 C 21,9 C
08.06.2012 11:01 21,9 C 57 % 1005,9 hPa 0,0 l/m 13,0 km/h (3 Bft) W-SW 247 13,0 C 21,9 C
08.06.2012 11:06 21,9 C 58 % 1005,8 hPa 0,0 l/m 16,6 km/h (3 Bft) W-SW 247 13,3 C 21,9 C
08.06.2012 11:11 21,9 C 58 % 1005,8 hPa 0,0 l/m 10,4 km/h (2 Bft) S 180 13,3 C 21,9 C
08.06.2012 11:16 22,1 C 58 % 1005,8 hPa 0,0 l/m 7,6 km/h (2 Bft) W-SW 247 13,4 C 22,1 C
08.06.2012 11:21 22,2 C 56 % 1005,8 hPa 0,0 l/m 15,8 km/h (3 Bft) W 270 13,0 C 22,2 C
08.06.2012 11:26 22,2 C 55 % 1005,8 hPa 0,0 l/m 5,8 km/h (2 Bft) SW 225 12,7 C 22,2 C
08.06.2012 11:31 22,3 C 55 % 1005,8 hPa 0,0 l/m 9,7 km/h (2 Bft) W 270 12,8 C 22,3 C
08.06.2012 11:36 22,2 C 54 % 1005,8 hPa 0,0 l/m 13,0 km/h (3 Bft) W-SW 247 12,4 C 22,2 C
08.06.2012 11:41 22,2 C 56 % 1005,9 hPa 0,0 l/m 6,1 km/h (2 Bft) W-SW 247 13,0 C 22,2 C
08.06.2012 11:46 22,3 C 55 % 1005,9 hPa 0,0 l/m 9,4 km/h (2 Bft) S 180 12,8 C 22,3 C
08.06.2012 11:51 22,3 C 55 % 1005,9 hPa 0,0 l/m 9,0 km/h (2 Bft) W-NW 292 12,8 C 22,3 C
08.06.2012 11:56 22,3 C 55 % 1005,9 hPa 0,0 l/m 7,9 km/h (2 Bft) W 270 12,8 C 22,3 C
08.06.2012 12:01 22,4 C 55 % 1006,0 hPa 0,0 l/m 14,8 km/h (3 Bft) W-NW 292 12,9 C 22,4 C
08.06.2012 12:06 22,3 C 55 % 1006,1 hPa 0,0 l/m 5,4 km/h (1 Bft) W-NW 292 12,8 C 22,3 C
08.06.2012 12:11 22,4 C 56 % 1006,3 hPa 0,0 l/m 19,1 km/h (3 Bft) W-SW 247 13,2 C 22,4 C
08.06.2012 12:16 22,6 C 55 % 1006,2 hPa 0,0 l/m 4,7 km/h (1 Bft) W-SW 247 13,1 C 22,6 C
08.06.2012 12:21 22,9 C 54 % 1006,3 hPa 0,0 l/m 17,3 km/h (3 Bft) W-SW 247 13,1 C 22,9 C
08.06.2012 12:26 22,9 C 53 % 1006,5 hPa 0,0 l/m 11,9 km/h (2 Bft) W-SW 247 12,8 C 22,9 C
08.06.2012 12:31 23,1 C 54 % 1006,4 hPa 0,0 l/m 4,7 km/h (1 Bft) W 270 13,3 C 23,1 C
08.06.2012 12:36 23,4 C 54 % 1006,4 hPa 0,0 l/m 13,7 km/h (3 Bft) W-SW 247 13,6 C 23,4 C
08.06.2012 12:41 23,6 C 52 % 1006,2 hPa 0,0 l/m 24,1 km/h (4 Bft) W-SW 247 13,2 C 23,6 C
08.06.2012 12:46 23,6 C 51 % 1006,4 hPa 0,0 l/m 19,8 km/h (3 Bft) W-SW 247 12,9 C 23,6 C
08.06.2012 12:51 23,5 C 50 % 1006,2 hPa 0,0 l/m 15,1 km/h (3 Bft) S-SW 202 12,5 C 23,5 C
08.06.2012 12:56 23,4 C 49 % 1006,1 hPa 0,0 l/m 6,1 km/h (2 Bft) W 270 12,1 C 23,4 C
08.06.2012 13:01 23,3 C 50 % 1006,3 hPa 0,0 l/m 15,1 km/h (3 Bft) SW 225 12,3 C 23,3 C
08.06.2012 13:06 23,4 C 51 % 1006,4 hPa 0,0 l/m 14,0 km/h (3 Bft) SW 225 12,7 C 23,4 C
08.06.2012 13:11 23,6 C 50 % 1006,5 hPa 0,0 l/m 19,4 km/h (3 Bft) W-SW 247 12,6 C 23,6 C
08.06.2012 13:16 23,7 C 50 % 1006,3 hPa 0,0 l/m 6,8 km/h (2 Bft) S-SW 202 12,6 C 23,7 C
08.06.2012 13:21 23,9 C 49 % 1006,4 hPa 0,0 l/m 15,8 km/h (3 Bft) W-SW 247 12,5 C 23,9 C
08.06.2012 13:26 24,1 C 49 % 1006,3 hPa 0,0 l/m 15,1 km/h (3 Bft) W 270 12,7 C 24,1 C
08.06.2012 13:31 24,1 C 48 % 1006,3 hPa 0,0 l/m 20,5 km/h (4 Bft) W-SW 247 12,4 C 24,1 C
08.06.2012 13:36 24,2 C 48 % 1006,5 hPa 0,0 l/m 14,4 km/h (3 Bft) S 180 12,5 C 24,2 C
08.06.2012 13:41 24,3 C 49 % 1006,3 hPa 0,0 l/m 14,4 km/h (3 Bft) W 270 12,9 C 24,3 C
08.06.2012 13:46 24,0 C 48 % 1006,4 hPa 0,0 l/m 7,9 km/h (2 Bft) W-SW 247 12,3 C 24,0 C
08.06.2012 13:51 23,6 C 48 % 1006,3 hPa 0,0 l/m 16,9 km/h (3 Bft) W-SW 247 11,9 C 23,6 C
08.06.2012 13:56 23,4 C 49 % 1006,3 hPa 0,0 l/m 7,6 km/h (2 Bft) W 270 12,1 C 23,4 C
08.06.2012 14:01 23,1 C 49 % 1006,3 hPa 0,0 l/m 13,3 km/h (3 Bft) W 270 11,8 C 23,1 C
08.06.2012 14:06 23,0 C 50 % 1006,3 hPa 0,0 l/m 18,4 km/h (3 Bft) SW 225 12,0 C 23,0 C
08.06.2012 14:11 22,8 C 51 % 1006,2 hPa 0,0 l/m 5,4 km/h (1 Bft) W-SW 247 12,1 C 22,8 C
08.06.2012 14:16 22,6 C 52 % 1006,4 hPa 0,0 l/m 8,6 km/h (2 Bft) W-SW 247 12,2 C 22,6 C
08.06.2012 14:21 22,3 C 54 % 1006,4 hPa 0,0 l/m 12,2 km/h (2 Bft) W-SW 247 12,5 C 22,3 C
08.06.2012 14:26 21,9 C 55 % 1006,4 hPa 0,0 l/m 4,7 km/h (1 Bft) W 270 12,4 C 21,9 C
08.06.2012 14:31 21,8 C 56 % 1006,6 hPa 0,0 l/m 5,0 km/h (1 Bft) W-SW 247 12,6 C 21,8 C
08.06.2012 14:36 21,6 C 56 % 1006,7 hPa 0,0 l/m 18,0 km/h (3 Bft) W-SW 247 12,4 C 21,6 C
08.06.2012 14:41 21,5 C 56 % 1006,7 hPa 0,0 l/m 9,4 km/h (2 Bft) SW 225 12,3 C 21,5 C
08.06.2012 14:46 21,4 C 56 % 1006,5 hPa 0,0 l/m 14,0 km/h (3 Bft) W-SW 247 12,3 C 21,4 C
08.06.2012 14:51 21,5 C 56 % 1006,6 hPa 0,0 l/m 6,5 km/h (2 Bft) W 270 12,3 C 21,5 C
08.06.2012 14:56 21,8 C 55 % 1006,6 hPa 0,0 l/m 4,0 km/h (1 Bft) W-NW 292 12,4 C 21,8 C
08.06.2012 15:01 22,1 C 54 % 1006,6 hPa 0,0 l/m 11,9 km/h (2 Bft) W 270 12,3 C 22,1 C
08.06.2012 15:06 22,6 C 54 % 1006,5 hPa 0,0 l/m 5,0 km/h (1 Bft) W-SW 247 12,8 C 22,6 C
08.06.2012 15:11 23,1 C 53 % 1006,4 hPa 0,0 l/m 13,3 km/h (3 Bft) W-SW 247 13,0 C 23,1 C
08.06.2012 15:16 23,4 C 52 % 1006,3 hPa 0,0 l/m 16,6 km/h (3 Bft) W-NW 292 13,0 C 23,4 C
08.06.2012 15:21 23,6 C 51 % 1006,5 hPa 0,0 l/m 11,9 km/h (2 Bft) W 270 12,9 C 23,6 C
08.06.2012 15:26 23,6 C 51 % 1006,5 hPa 0,0 l/m 16,9 km/h (3 Bft) W-SW 247 12,9 C 23,6 C
08.06.2012 15:31 23,8 C 51 % 1006,3 hPa 0,0 l/m 14,0 km/h (3 Bft) W-NW 292 13,0 C 23,8 C
08.06.2012 15:36 23,9 C 51 % 1006,3 hPa 0,0 l/m 5,4 km/h (1 Bft) SW 225 13,1 C 23,9 C
08.06.2012 15:41 24,1 C 51 % 1006,4 hPa 0,0 l/m 11,9 km/h (2 Bft) W-SW 247 13,3 C 24,1 C
08.06.2012 15:46 24,3 C 51 % 1006,3 hPa 0,0 l/m 9,4 km/h (2 Bft) W 270 13,5 C 24,3 C
08.06.2012 15:51 24,4 C 50 % 1006,1 hPa 0,0 l/m 14,0 km/h (3 Bft) SW 225 13,3 C 24,4 C
08.06.2012 15:56 24,6 C 49 % 1006,4 hPa 0,0 l/m 18,4 km/h (3 Bft) S-SW 202 13,2 C 24,6 C
08.06.2012 16:01 24,4 C 49 % 1006,2 hPa 0,0 l/m 15,1 km/h (3 Bft) SW 225 13,0 C 24,4 C
08.06.2012 16:06 24,4 C 49 % 1006,3 hPa 0,0 l/m 16,9 km/h (3 Bft) SW 225 13,0 C 24,4 C
08.06.2012 16:11 24,2 C 49 % 1006,4 hPa 0,0 l/m 11,9 km/h (2 Bft) W-SW 247 12,8 C 24,2 C
08.06.2012 16:16 23,8 C 49 % 1006,4 hPa 0,0 l/m 14,8 km/h (3 Bft) W 270 12,4 C 23,8 C
08.06.2012 16:21 23,4 C 49 % 1006,5 hPa 0,0 l/m 9,0 km/h (2 Bft) SW 225 12,1 C 23,4 C
08.06.2012 16:26 23,3 C 50 % 1006,4 hPa 0,0 l/m 16,9 km/h (3 Bft) W-SW 247 12,3 C 23,3 C
08.06.2012 16:31 23,4 C 50 % 1006,4 hPa 0,0 l/m 7,2 km/h (2 Bft) W-NW 292 12,4 C 23,4 C
08.06.2012 16:36 23,7 C 51 % 1006,4 hPa 0,0 l/m 3,6 km/h (1 Bft) W 270 13,0 C 23,7 C
08.06.2012 16:41 24,1 C 51 % 1006,3 hPa 0,0 l/m 11,5 km/h (2 Bft) W-SW 247 13,3 C 24,1 C
08.06.2012 16:46 24,4 C 49 % 1006,4 hPa 0,0 l/m 18,7 km/h (3 Bft) W-SW 247 13,0 C 24,4 C
08.06.2012 16:51 24,6 C 47 % 1006,3 hPa 0,0 l/m 10,1 km/h (2 Bft) W 270 12,5 C 24,6 C
08.06.2012 16:56 24,6 C 47 % 1006,3 hPa 0,0 l/m 9,4 km/h (2 Bft) W-SW 247 12,5 C 24,6 C
08.06.2012 17:01 24,4 C 47 % 1006,5 hPa 0,0 l/m 23,4 km/h (4 Bft) W-SW 247 12,3 C 24,4 C
08.06.2012 17:06 24,0 C 47 % 1006,6 hPa 0,0 l/m 11,9 km/h (2 Bft) W-SW 247 12,0 C 24,0 C
08.06.2012 17:11 23,9 C 48 % 1006,6 hPa 0,0 l/m 13,3 km/h (3 Bft) W 270 12,2 C 23,9 C
08.06.2012 17:16 24,0 C 49 % 1006,6 hPa 0,0 l/m 8,3 km/h (2 Bft) W-NW 292 12,6 C 24,0 C
08.06.2012 17:21 24,1 C 48 % 1006,6 hPa 0,0 l/m 9,4 km/h (2 Bft) W-NW 292 12,4 C 24,1 C
08.06.2012 17:26 23,9 C 49 % 1006,4 hPa 0,0 l/m 12,2 km/h (2 Bft) W-NW 292 12,5 C 23,9 C
08.06.2012 17:31 23,9 C 49 % 1006,6 hPa 0,0 l/m 13,3 km/h (3 Bft) W 270 12,5 C 23,9 C
08.06.2012 17:36 24,2 C 48 % 1006,6 hPa 0,0 l/m 5,0 km/h (1 Bft) W 270 12,5 C 24,2 C
08.06.2012 17:41 24,4 C 48 % 1006,7 hPa 0,0 l/m 22,0 km/h (4 Bft) W 270 12,7 C 24,4 C
08.06.2012 17:46 24,3 C 47 % 1006,8 hPa 0,0 l/m 3,2 km/h (1 Bft) NW 315 12,3 C 24,3 C
08.06.2012 17:51 24,4 C 47 % 1006,8 hPa 0,0 l/m 7,9 km/h (2 Bft) S-SW 202 12,3 C 24,4 C
08.06.2012 17:56 24,5 C 46 % 1006,7 hPa 0,0 l/m 6,5 km/h (2 Bft) S 180 12,1 C 24,5 C
08.06.2012 18:01 24,6 C 46 % 1006,7 hPa 0,0 l/m 7,6 km/h (2 Bft) S-SW 202 12,2 C 24,6 C
08.06.2012 18:06 24,6 C 45 % 1006,9 hPa 0,0 l/m 9,4 km/h (2 Bft) W 270 11,9 C 24,6 C
08.06.2012 18:11 24,8 C 45 % 1006,9 hPa 0,0 l/m 7,6 km/h (2 Bft) W 270 12,0 C 24,8 C
08.06.2012 18:16 24,8 C 44 % 1006,9 hPa 0,0 l/m 7,2 km/h (2 Bft) W-SW 247 11,7 C 24,8 C
08.06.2012 18:21 24,8 C 43 % 1007,0 hPa 0,0 l/m 17,3 km/h (3 Bft) SW 225 11,4 C 24,8 C
08.06.2012 18:26 24,6 C 43 % 1007,1 hPa 0,0 l/m 8,6 km/h (2 Bft) W 270 11,2 C 24,6 C
08.06.2012 18:31 24,6 C 42 % 1007,0 hPa 0,0 l/m 19,8 km/h (3 Bft) W-SW 247 10,8 C 24,6 C
08.06.2012 18:36 24,5 C 42 % 1007,0 hPa 0,0 l/m 13,3 km/h (3 Bft) SW 225 10,7 C 24,5 C
08.06.2012 18:41 24,6 C 43 % 1006,9 hPa 0,0 l/m 9,7 km/h (2 Bft) W-NW 292 11,2 C 24,6 C
08.06.2012 18:46 24,5 C 43 % 1007,0 hPa 0,0 l/m 17,3 km/h (3 Bft) W-SW 247 11,1 C 24,5 C
08.06.2012 18:51 24,5 C 42 % 1007,0 hPa 0,0 l/m 16,9 km/h (3 Bft) SW 225 10,7 C 24,5 C
08.06.2012 18:56 24,4 C 42 % 1007,0 hPa 0,0 l/m 10,1 km/h (2 Bft) W-SW 247 10,6 C 24,4 C
08.06.2012 19:01 24,4 C 43 % 1007,1 hPa 0,0 l/m 5,0 km/h (1 Bft) W 270 11,0 C 24,4 C
08.06.2012 19:06 24,4 C 43 % 1007,0 hPa 0,0 l/m 13,7 km/h (3 Bft) W 270 11,0 C 24,4 C
08.06.2012 19:11 24,4 C 43 % 1007,0 hPa 0,0 l/m 2,5 km/h (1 Bft) W-NW 292 11,0 C 24,4 C
08.06.2012 19:16 24,4 C 43 % 1007,1 hPa 0,0 l/m 4,0 km/h (1 Bft) W 270 11,0 C 24,4 C
08.06.2012 19:21 24,4 C 43 % 1007,1 hPa 0,0 l/m 8,3 km/h (2 Bft) S-SW 202 11,0 C 24,4 C
08.06.2012 19:26 24,3 C 43 % 1007,2 hPa 0,0 l/m 4,0 km/h (1 Bft) W 270 10,9 C 24,3 C
08.06.2012 19:31 24,2 C 43 % 1007,1 hPa 0,0 l/m 8,3 km/h (2 Bft) W-SW 247 10,8 C 24,2 C
08.06.2012 19:36 24,1 C 43 % 1007,2 hPa 0,0 l/m 12,6 km/h (3 Bft) W-SW 247 10,7 C 24,1 C
08.06.2012 19:41 23,9 C 43 % 1007,3 hPa 0,0 l/m 7,6 km/h (2 Bft) W 270 10,5 C 23,9 C
08.06.2012 19:46 23,8 C 44 % 1007,4 hPa 0,0 l/m 2,5 km/h (1 Bft) W-SW 247 10,8 C 23,8 C
08.06.2012 19:51 23,7 C 44 % 1007,4 hPa 0,0 l/m 2,5 km/h (1 Bft) W 270 10,7 C 23,7 C
08.06.2012 19:56 23,7 C 45 % 1007,4 hPa 0,0 l/m 3,6 km/h (1 Bft) W-SW 247 11,1 C 23,7 C
08.06.2012 20:01 23,6 C 45 % 1007,5 hPa 0,0 l/m 2,5 km/h (1 Bft) W-SW 247 11,0 C 23,6 C
08.06.2012 20:06 23,5 C 45 % 1007,5 hPa 0,0 l/m 3,2 km/h (1 Bft) S-SW 202 10,9 C 23,5 C
08.06.2012 20:11 23,4 C 45 % 1007,7 hPa 0,0 l/m 0,0 km/h (0 Bft) S 180 10,8 C 23,4 C
08.06.2012 20:16 23,3 C 46 % 1007,6 hPa 0,0 l/m 2,5 km/h (1 Bft) W-SW 247 11,0 C 23,3 C
08.06.2012 20:21 23,0 C 46 % 1007,6 hPa 0,0 l/m 4,7 km/h (1 Bft) W-SW 247 10,7 C 23,0 C
08.06.2012 20:26 22,8 C 46 % 1007,6 hPa 0,0 l/m 3,2 km/h (1 Bft) W 270 10,6 C 22,8 C
08.06.2012 20:31 22,6 C 47 % 1007,8 hPa 0,0 l/m 3,6 km/h (1 Bft) W 270 10,7 C 22,6 C
08.06.2012 20:36 22,4 C 47 % 1007,9 hPa 0,0 l/m 4,0 km/h (1 Bft) W-SW 247 10,5 C 22,4 C
08.06.2012 20:41 22,1 C 48 % 1008,0 hPa 0,0 l/m 2,2 km/h (1 Bft) W 270 10,6 C 22,1 C
08.06.2012 20:46 21,9 C 49 % 1008,0 hPa 0,0 l/m 2,2 km/h (1 Bft) W-NW 292 10,7 C 21,9 C
08.06.2012 20:51 21,6 C 50 % 1008,0 hPa 0,0 l/m 0,0 km/h (0 Bft) N-NW 337 10,7 C 21,6 C
08.06.2012 20:56 21,1 C 51 % 1008,1 hPa 0,0 l/m 0,0 km/h (0 Bft) N-NW 337 10,6 C 21,1 C
08.06.2012 21:01 20,8 C 52 % 1008,1 hPa 0,0 l/m 0,0 km/h (0 Bft) N-NW 337 10,6 C 20,8 C
08.06.2012 21:06 20,7 C 53 % 1008,2 hPa 0,0 l/m 1,4 km/h (1 Bft) W-NW 292 10,8 C 20,7 C
08.06.2012 21:11 20,6 C 54 % 1008,3 hPa 0,0 l/m 1,1 km/h (1 Bft) NW 315 11,0 C 20,6 C
08.06.2012 21:16 20,6 C 54 % 1008,4 hPa 0,0 l/m 0,0 km/h (0 Bft) NW 315 11,0 C 20,6 C
08.06.2012 21:21 20,5 C 54 % 1008,4 hPa 0,0 l/m 0,0 km/h (0 Bft) NW 315 10,9 C 20,5 C
08.06.2012 21:26 20,4 C 55 % 1008,7 hPa 0,0 l/m 2,9 km/h (1 Bft) NW 315 11,1 C 20,4 C
08.06.2012 21:31 20,3 C 55 % 1008,8 hPa 0,0 l/m 3,6 km/h (1 Bft) NW 315 11,0 C 20,3 C
08.06.2012 21:36 19,9 C 56 % 1009,0 hPa 0,0 l/m 3,2 km/h (1 Bft) NW 315 10,9 C 19,9 C
08.06.2012 21:41 19,4 C 55 % 1009,0 hPa 0,0 l/m 3,2 km/h (1 Bft) N 360 10,1 C 19,4 C
08.06.2012 21:46 18,9 C 56 % 1009,1 hPa 0,0 l/m 6,1 km/h (2 Bft) NO 45 9,9 C 18,9 C
08.06.2012 21:51 18,4 C 57 % 1009,1 hPa 0,0 l/m 7,2 km/h (2 Bft) NO 45 9,7 C 18,4 C
08.06.2012 21:56 18,2 C 57 % 1009,2 hPa 0,0 l/m 1,4 km/h (1 Bft) N-NW 337 9,5 C 18,2 C
08.06.2012 22:01 18,1 C 58 % 1009,5 hPa 0,0 l/m 4,0 km/h (1 Bft) NW 315 9,7 C 18,1 C
08.06.2012 22:06 18,1 C 58 % 1009,7 hPa 0,0 l/m 6,5 km/h (2 Bft) W-NW 292 9,7 C 18,1 C
08.06.2012 22:11 18,1 C 59 % 1009,9 hPa 0,0 l/m 4,0 km/h (1 Bft) W 270 10,0 C 18,1 C
08.06.2012 22:16 18,0 C 60 % 1010,1 hPa 0,0 l/m 17,3 km/h (3 Bft) W-NW 292 10,1 C 18,0 C
08.06.2012 22:21 17,9 C 61 % 1010,2 hPa 0,0 l/m 15,5 km/h (3 Bft) SW 225 10,3 C 17,9 C
08.06.2012 22:26 17,6 C 62 % 1009,9 hPa 0,0 l/m 5,4 km/h (1 Bft) W-NW 292 10,2 C 17,6 C
08.06.2012 22:31 17,3 C 63 % 1009,8 hPa 0,0 l/m 2,9 km/h (1 Bft) W 270 10,2 C 17,3 C
08.06.2012 22:36 17,3 C 64 % 1009,8 hPa 0,0 l/m 0,0 km/h (0 Bft) W-SW 247 10,4 C 17,3 C
08.06.2012 22:41 17,4 C 65 % 1009,8 hPa 0,0 l/m 3,2 km/h (1 Bft) SW 225 10,8 C 17,4 C
08.06.2012 22:46 17,3 C 65 % 1009,7 hPa 0,0 l/m 0,0 km/h (0 Bft) SW 225 10,7 C 17,3 C
08.06.2012 22:51 17,2 C 65 % 1009,7 hPa 0,0 l/m 0,0 km/h (0 Bft) SW 225 10,6 C 17,2 C
08.06.2012 22:56 17,1 C 66 % 1009,7 hPa 0,0 l/m 0,0 km/h (0 Bft) SW 225 10,7 C 17,1 C
08.06.2012 23:01 17,1 C 66 % 1009,8 hPa 0,0 l/m 0,0 km/h (0 Bft) W-SW 247 10,7 C 17,1 C
08.06.2012 23:06 16,9 C 66 % 1009,8 hPa 0,0 l/m 0,0 km/h (0 Bft) SW 225 10,5 C 16,9 C
08.06.2012 23:11 16,9 C 67 % 1009,9 hPa 0,0 l/m 0,0 km/h (0 Bft) SW 225 10,7 C 16,9 C
08.06.2012 23:16 16,8 C 68 % 1009,8 hPa 0,0 l/m 0,0 km/h (0 Bft) S-SW 202 10,9 C 16,8 C
08.06.2012 23:21 16,6 C 68 % 1009,7 hPa 0,0 l/m 0,0 km/h (0 Bft) S-SW 202 10,7 C 16,6 C
08.06.2012 23:26 16,5 C 68 % 1009,7 hPa 0,0 l/m 2,2 km/h (1 Bft) S-SW 202 10,6 C 16,5 C
08.06.2012 23:31 16,5 C 69 % 1009,8 hPa 0,0 l/m 3,2 km/h (1 Bft) S 180 10,8 C 16,5 C
08.06.2012 23:36 16,4 C 69 % 1009,8 hPa 0,0 l/m 1,4 km/h (1 Bft) S-SO 157 10,7 C 16,4 C
08.06.2012 23:41 16,4 C 69 % 1009,7 hPa 0,0 l/m 2,2 km/h (1 Bft) S 180 10,7 C 16,4 C
08.06.2012 23:46 16,4 C 69 % 1009,8 hPa 0,0 l/m 3,2 km/h (1 Bft) S-SO 157 10,7 C 16,4 C
08.06.2012 23:51 16,3 C 70 % 1009,9 hPa 0,0 l/m 0,0 km/h (0 Bft) S-SO 157 10,8 C 16,3 C
08.06.2012 23:56 16,2 C 70 % 1010,0 hPa 0,0 l/m 2,2 km/h (1 Bft) S-SO 157 10,7 C 16,2 C
_ Min-Zeit 05:26 18:31 03:06 - 00:51 - - 21:56 05:26
Minimum _ 14,6 C 42 % 1002,9 hPa - 0,0 km/h (0 Bft) - - 9,5 C 14,6 C
_ Max-Zeit 18:11 05:46 22:21 01:06 09:11 - - 09:06 18:11
Maximum _ 24,8 C 90 % 1010,2 hPa 0,5 l/m 26,6 km/h
W-SW (4 Bft)
- - 15,6 C 24,8 C
Durchschnitt _ 19,9 C 66 % 1005,8 hPa #1,0 l/m 8,0 km/h (2 Bft) W-SW - 12,7 C 19,9 C
(c) by David Heller